sensor_id;sensor_type;location;lat;lon;timestamp;P1;durP1;ratioP1;P2;durP2;ratioP2
68365;SDS011;55283;51.466;5.478;2023-02-11T00:01:42;4.67;;;3.13;;
68365;SDS011;55283;51.466;5.478;2023-02-11T00:04:07;5.17;;;3.60;;
68365;SDS011;55283;51.466;5.478;2023-02-11T00:06:33;5.40;;;3.58;;
68365;SDS011;55283;51.466;5.478;2023-02-11T00:08:59;4.50;;;3.30;;
68365;SDS011;55283;51.466;5.478;2023-02-11T00:11:25;4.60;;;3.40;;
68365;SDS011;55283;51.466;5.478;2023-02-11T00:13:58;4.47;;;3.27;;
68365;SDS011;55283;51.466;5.478;2023-02-11T00:16:24;4.68;;;3.20;;
68365;SDS011;55283;51.466;5.478;2023-02-11T00:18:50;4.20;;;3.17;;
68365;SDS011;55283;51.466;5.478;2023-02-11T00:21:18;4.47;;;3.20;;
68365;SDS011;55283;51.466;5.478;2023-02-11T00:23:45;5.40;;;3.55;;
68365;SDS011;55283;51.466;5.478;2023-02-11T00:26:14;3.67;;;3.07;;
68365;SDS011;55283;51.466;5.478;2023-02-11T00:28:42;4.10;;;2.90;;
68365;SDS011;55283;51.466;5.478;2023-02-11T00:31:08;3.97;;;3.17;;
68365;SDS011;55283;51.466;5.478;2023-02-11T00:33:34;4.45;;;3.22;;
68365;SDS011;55283;51.466;5.478;2023-02-11T00:36:03;5.87;;;3.30;;
68365;SDS011;55283;51.466;5.478;2023-02-11T00:38:30;4.47;;;3.10;;
68365;SDS011;55283;51.466;5.478;2023-02-11T00:40:55;5.10;;;3.40;;
68365;SDS011;55283;51.466;5.478;2023-02-11T00:43:21;4.10;;;3.37;;
68365;SDS011;55283;51.466;5.478;2023-02-11T00:45:46;4.20;;;3.22;;
68365;SDS011;55283;51.466;5.478;2023-02-11T00:48:11;3.30;;;2.83;;
68365;SDS011;55283;51.466;5.478;2023-02-11T00:50:37;4.43;;;3.30;;
68365;SDS011;55283;51.466;5.478;2023-02-11T00:53:02;3.70;;;2.90;;
68365;SDS011;55283;51.466;5.478;2023-02-11T00:55:28;4.97;;;3.20;;
68365;SDS011;55283;51.466;5.478;2023-02-11T00:57:53;4.38;;;3.22;;
68365;SDS011;55283;51.466;5.478;2023-02-11T01:00:19;3.77;;;3.00;;
68365;SDS011;55283;51.466;5.478;2023-02-11T01:02:44;4.83;;;3.20;;
68365;SDS011;55283;51.466;5.478;2023-02-11T01:05:09;3.17;;;2.87;;
68365;SDS011;55283;51.466;5.478;2023-02-11T01:07:35;3.70;;;3.03;;
68365;SDS011;55283;51.466;5.478;2023-02-11T01:10:00;5.38;;;3.00;;
68365;SDS011;55283;51.466;5.478;2023-02-11T01:12:26;5.20;;;3.27;;
68365;SDS011;55283;51.466;5.478;2023-02-11T01:14:51;4.10;;;3.20;;
68365;SDS011;55283;51.466;5.478;2023-02-11T01:17:17;4.00;;;3.27;;
68365;SDS011;55283;51.466;5.478;2023-02-11T01:19:42;3.43;;;3.00;;
68365;SDS011;55283;51.466;5.478;2023-02-11T01:22:07;3.70;;;3.20;;
68365;SDS011;55283;51.466;5.478;2023-02-11T01:24:33;3.80;;;2.90;;
68365;SDS011;55283;51.466;5.478;2023-02-11T01:26:58;4.00;;;2.87;;
68365;SDS011;55283;51.466;5.478;2023-02-11T01:29:24;3.97;;;3.07;;
68365;SDS011;55283;51.466;5.478;2023-02-11T01:31:49;4.33;;;3.07;;
68365;SDS011;55283;51.466;5.478;2023-02-11T01:34:15;3.93;;;2.80;;
68365;SDS011;55283;51.466;5.478;2023-02-11T01:36:40;3.70;;;2.83;;
68365;SDS011;55283;51.466;5.478;2023-02-11T01:39:06;3.80;;;2.90;;
68365;SDS011;55283;51.466;5.478;2023-02-11T01:41:32;3.97;;;3.10;;
68365;SDS011;55283;51.466;5.478;2023-02-11T01:44:20;3.83;;;2.87;;
68365;SDS011;55283;51.466;5.478;2023-02-11T01:46:54;3.95;;;2.80;;
68365;SDS011;55283;51.466;5.478;2023-02-11T01:49:22;3.78;;;2.90;;
68365;SDS011;55283;51.466;5.478;2023-02-11T01:54:23;4.00;;;3.10;;
68365;SDS011;55283;51.466;5.478;2023-02-11T01:57:12;3.92;;;2.80;;
68365;SDS011;55283;51.466;5.478;2023-02-11T02:10:46;3.95;;;3.25;;
68365;SDS011;55283;51.466;5.478;2023-02-11T02:13:14;3.03;;;2.72;;
68365;SDS011;55283;51.466;5.478;2023-02-11T02:15:40;3.70;;;2.60;;
68365;SDS011;55283;51.466;5.478;2023-02-11T02:34:48;2.97;;;2.60;;
68365;SDS011;55283;51.466;5.478;2023-02-11T02:37:23;3.92;;;2.38;;
68365;SDS011;55283;51.466;5.478;2023-02-11T02:39:58;3.20;;;2.80;;
68365;SDS011;55283;51.466;5.478;2023-02-11T02:42:30;3.53;;;2.90;;
68365;SDS011;55283;51.466;5.478;2023-02-11T02:44:56;3.07;;;2.60;;
68365;SDS011;55283;51.466;5.478;2023-02-11T02:47:22;4.75;;;2.78;;
68365;SDS011;55283;51.466;5.478;2023-02-11T02:49:47;3.23;;;2.70;;
68365;SDS011;55283;51.466;5.478;2023-02-11T02:55:05;3.13;;;2.78;;
68365;SDS011;55283;51.466;5.478;2023-02-11T03:06:04;2.90;;;2.30;;
68365;SDS011;55283;51.466;5.478;2023-02-11T03:08:56;3.35;;;2.40;;
68365;SDS011;55283;51.466;5.478;2023-02-11T03:11:28;3.00;;;2.53;;
68365;SDS011;55283;51.466;5.478;2023-02-11T03:13:53;3.23;;;2.60;;
68365;SDS011;55283;51.466;5.478;2023-02-11T03:16:22;3.83;;;2.45;;
68365;SDS011;55283;51.466;5.478;2023-02-11T03:21:42;3.10;;;2.57;;
68365;SDS011;55283;51.466;5.478;2023-02-11T03:24:11;3.00;;;2.70;;
68365;SDS011;55283;51.466;5.478;2023-02-11T03:26:48;3.25;;;2.45;;
68365;SDS011;55283;51.466;5.478;2023-02-11T03:29:34;3.20;;;2.50;;
68365;SDS011;55283;51.466;5.478;2023-02-11T03:32:12;3.13;;;2.50;;
68365;SDS011;55283;51.466;5.478;2023-02-11T03:34:48;3.38;;;2.60;;
68365;SDS011;55283;51.466;5.478;2023-02-11T03:40:04;2.50;;;2.22;;
68365;SDS011;55283;51.466;5.478;2023-02-11T03:42:39;2.88;;;2.45;;
68365;SDS011;55283;51.466;5.478;2023-02-11T03:45:19;3.13;;;2.30;;
68365;SDS011;55283;51.466;5.478;2023-02-11T03:47:47;3.50;;;2.47;;
68365;SDS011;55283;51.466;5.478;2023-02-11T03:50:17;3.17;;;2.50;;
68365;SDS011;55283;51.466;5.478;2023-02-11T03:52:45;3.08;;;2.47;;
68365;SDS011;55283;51.466;5.478;2023-02-11T03:55:14;2.43;;;2.20;;
68365;SDS011;55283;51.466;5.478;2023-02-11T03:57:42;2.92;;;2.50;;
68365;SDS011;55283;51.466;5.478;2023-02-11T04:00:08;3.15;;;2.47;;
68365;SDS011;55283;51.466;5.478;2023-02-11T04:02:35;2.53;;;2.23;;
68365;SDS011;55283;51.466;5.478;2023-02-11T04:05:02;2.55;;;2.35;;
68365;SDS011;55283;51.466;5.478;2023-02-11T04:07:28;2.92;;;2.47;;
68365;SDS011;55283;51.466;5.478;2023-02-11T04:09:54;3.17;;;2.33;;
68365;SDS011;55283;51.466;5.478;2023-02-11T04:12:19;2.87;;;2.30;;
68365;SDS011;55283;51.466;5.478;2023-02-11T04:14:45;3.50;;;2.53;;
68365;SDS011;55283;51.466;5.478;2023-02-11T04:17:11;3.23;;;2.40;;
68365;SDS011;55283;51.466;5.478;2023-02-11T04:19:37;2.90;;;2.37;;
68365;SDS011;55283;51.466;5.478;2023-02-11T04:22:02;2.80;;;2.40;;
68365;SDS011;55283;51.466;5.478;2023-02-11T04:24:28;2.70;;;2.40;;
68365;SDS011;55283;51.466;5.478;2023-02-11T04:26:53;2.83;;;2.42;;
68365;SDS011;55283;51.466;5.478;2023-02-11T04:29:19;3.03;;;2.30;;
68365;SDS011;55283;51.466;5.478;2023-02-11T04:31:44;3.40;;;2.40;;
68365;SDS011;55283;51.466;5.478;2023-02-11T04:34:10;3.05;;;2.35;;
68365;SDS011;55283;51.466;5.478;2023-02-11T04:36:35;2.90;;;2.23;;
68365;SDS011;55283;51.466;5.478;2023-02-11T04:39:01;3.03;;;2.50;;
68365;SDS011;55283;51.466;5.478;2023-02-11T04:41:27;3.63;;;2.35;;
68365;SDS011;55283;51.466;5.478;2023-02-11T04:43:52;3.23;;;2.37;;
68365;SDS011;55283;51.466;5.478;2023-02-11T04:46:17;2.80;;;2.20;;
68365;SDS011;55283;51.466;5.478;2023-02-11T04:48:43;3.30;;;2.30;;
68365;SDS011;55283;51.466;5.478;2023-02-11T04:51:08;3.03;;;2.40;;
68365;SDS011;55283;51.466;5.478;2023-02-11T04:53:34;3.47;;;2.50;;
68365;SDS011;55283;51.466;5.478;2023-02-11T04:55:59;4.10;;;2.30;;
68365;SDS011;55283;51.466;5.478;2023-02-11T04:58:24;2.53;;;2.17;;
68365;SDS011;55283;51.466;5.478;2023-02-11T05:00:50;3.33;;;2.20;;
68365;SDS011;55283;51.466;5.478;2023-02-11T05:03:15;3.30;;;2.30;;
68365;SDS011;55283;51.466;5.478;2023-02-11T05:05:41;3.30;;;2.38;;
68365;SDS011;55283;51.466;5.478;2023-02-11T05:08:08;3.43;;;2.23;;
68365;SDS011;55283;51.466;5.478;2023-02-11T05:10:34;2.88;;;2.38;;
68365;SDS011;55283;51.466;5.478;2023-02-11T05:13:00;4.13;;;2.17;;
68365;SDS011;55283;51.466;5.478;2023-02-11T05:15:26;3.60;;;2.30;;
68365;SDS011;55283;51.466;5.478;2023-02-11T05:17:51;2.90;;;2.20;;
68365;SDS011;55283;51.466;5.478;2023-02-11T05:20:17;2.78;;;2.15;;
68365;SDS011;55283;51.466;5.478;2023-02-11T05:22:43;2.63;;;2.33;;
68365;SDS011;55283;51.466;5.478;2023-02-11T05:25:08;2.77;;;2.17;;
68365;SDS011;55283;51.466;5.478;2023-02-11T05:27:34;2.53;;;2.23;;
68365;SDS011;55283;51.466;5.478;2023-02-11T05:29:59;3.00;;;2.17;;
68365;SDS011;55283;51.466;5.478;2023-02-11T05:32:25;2.45;;;1.98;;
68365;SDS011;55283;51.466;5.478;2023-02-11T05:34:50;3.00;;;2.20;;
68365;SDS011;55283;51.466;5.478;2023-02-11T05:37:16;2.83;;;2.30;;
68365;SDS011;55283;51.466;5.478;2023-02-11T05:39:41;2.50;;;2.27;;
68365;SDS011;55283;51.466;5.478;2023-02-11T05:42:06;3.20;;;2.40;;
68365;SDS011;55283;51.466;5.478;2023-02-11T05:44:32;2.77;;;2.20;;
68365;SDS011;55283;51.466;5.478;2023-02-11T05:46:58;2.40;;;2.20;;
68365;SDS011;55283;51.466;5.478;2023-02-11T05:49:23;2.47;;;2.28;;
68365;SDS011;55283;51.466;5.478;2023-02-11T05:51:48;2.97;;;2.50;;
68365;SDS011;55283;51.466;5.478;2023-02-11T05:54:14;2.80;;;2.27;;
68365;SDS011;55283;51.466;5.478;2023-02-11T05:56:40;2.90;;;2.20;;
68365;SDS011;55283;51.466;5.478;2023-02-11T05:59:06;3.17;;;2.23;;
68365;SDS011;55283;51.466;5.478;2023-02-11T06:01:31;2.97;;;2.27;;
68365;SDS011;55283;51.466;5.478;2023-02-11T06:03:56;3.13;;;1.97;;
68365;SDS011;55283;51.466;5.478;2023-02-11T06:06:22;2.77;;;1.90;;
68365;SDS011;55283;51.466;5.478;2023-02-11T06:08:47;2.70;;;2.22;;
68365;SDS011;55283;51.466;5.478;2023-02-11T06:11:14;2.73;;;2.00;;
68365;SDS011;55283;51.466;5.478;2023-02-11T06:13:40;2.58;;;2.00;;
68365;SDS011;55283;51.466;5.478;2023-02-11T06:16:05;3.33;;;2.00;;
68365;SDS011;55283;51.466;5.478;2023-02-11T06:18:31;2.80;;;2.30;;
68365;SDS011;55283;51.466;5.478;2023-02-11T06:20:58;2.13;;;1.92;;
68365;SDS011;55283;51.466;5.478;2023-02-11T06:23:24;3.08;;;2.33;;
68365;SDS011;55283;51.466;5.478;2023-02-11T06:25:50;2.57;;;2.23;;
68365;SDS011;55283;51.466;5.478;2023-02-11T06:28:16;2.75;;;2.17;;
68365;SDS011;55283;51.466;5.478;2023-02-11T06:30:41;2.40;;;2.00;;
68365;SDS011;55283;51.466;5.478;2023-02-11T06:33:07;2.50;;;2.30;;
68365;SDS011;55283;51.466;5.478;2023-02-11T06:35:32;2.45;;;2.05;;
68365;SDS011;55283;51.466;5.478;2023-02-11T06:37:59;3.80;;;2.00;;
68365;SDS011;55283;51.466;5.478;2023-02-11T06:40:25;2.75;;;2.20;;
68365;SDS011;55283;51.466;5.478;2023-02-11T06:42:50;2.72;;;2.10;;
68365;SDS011;55283;51.466;5.478;2023-02-11T06:45:16;3.90;;;2.10;;
68365;SDS011;55283;51.466;5.478;2023-02-11T06:47:41;4.23;;;2.23;;
68365;SDS011;55283;51.466;5.478;2023-02-11T06:50:08;3.47;;;2.07;;
68365;SDS011;55283;51.466;5.478;2023-02-11T06:52:36;2.00;;;1.75;;
68365;SDS011;55283;51.466;5.478;2023-02-11T06:55:01;2.83;;;2.10;;
68365;SDS011;55283;51.466;5.478;2023-02-11T06:57:26;3.67;;;2.17;;
68365;SDS011;55283;51.466;5.478;2023-02-11T06:59:52;2.72;;;1.90;;
68365;SDS011;55283;51.466;5.478;2023-02-11T07:02:17;5.23;;;2.20;;
68365;SDS011;55283;51.466;5.478;2023-02-11T07:04:42;2.90;;;2.10;;
68365;SDS011;55283;51.466;5.478;2023-02-11T07:07:08;3.33;;;1.97;;
68365;SDS011;55283;51.466;5.478;2023-02-11T07:09:33;2.90;;;2.00;;
68365;SDS011;55283;51.466;5.478;2023-02-11T07:11:58;3.40;;;1.93;;
68365;SDS011;55283;51.466;5.478;2023-02-11T07:14:24;5.68;;;2.05;;
68365;SDS011;55283;51.466;5.478;2023-02-11T07:16:49;5.20;;;1.87;;
68365;SDS011;55283;51.466;5.478;2023-02-11T07:19:15;5.87;;;2.50;;
68365;SDS011;55283;51.466;5.478;2023-02-11T07:21:41;2.67;;;2.20;;
68365;SDS011;55283;51.466;5.478;2023-02-11T07:24:07;3.83;;;2.50;;
68365;SDS011;55283;51.466;5.478;2023-02-11T07:26:33;4.72;;;2.80;;
68365;SDS011;55283;51.466;5.478;2023-02-11T07:28:59;4.22;;;2.50;;
68365;SDS011;55283;51.466;5.478;2023-02-11T07:31:25;5.03;;;3.20;;
68365;SDS011;55283;51.466;5.478;2023-02-11T07:33:53;14.80;;;6.93;;
68365;SDS011;55283;51.466;5.478;2023-02-11T07:36:20;15.40;;;8.13;;
68365;SDS011;55283;51.466;5.478;2023-02-11T07:38:46;14.93;;;8.05;;
68365;SDS011;55283;51.466;5.478;2023-02-11T07:41:13;12.97;;;6.90;;
68365;SDS011;55283;51.466;5.478;2023-02-11T07:43:40;10.00;;;5.28;;
68365;SDS011;55283;51.466;5.478;2023-02-11T07:46:07;9.27;;;5.22;;
68365;SDS011;55283;51.466;5.478;2023-02-11T07:48:36;15.03;;;5.43;;
68365;SDS011;55283;51.466;5.478;2023-02-11T07:51:13;9.25;;;4.75;;
68365;SDS011;55283;51.466;5.478;2023-02-11T07:53:42;9.63;;;5.60;;
68365;SDS011;55283;51.466;5.478;2023-02-11T07:56:08;11.20;;;5.13;;
68365;SDS011;55283;51.466;5.478;2023-02-11T07:58:35;10.40;;;5.63;;
68365;SDS011;55283;51.466;5.478;2023-02-11T08:01:04;16.70;;;8.57;;
68365;SDS011;55283;51.466;5.478;2023-02-11T08:03:31;18.63;;;10.80;;
68365;SDS011;55283;51.466;5.478;2023-02-11T08:05:57;21.35;;;12.23;;
68365;SDS011;55283;51.466;5.478;2023-02-11T08:08:25;22.90;;;12.37;;
68365;SDS011;55283;51.466;5.478;2023-02-11T08:10:51;21.13;;;12.70;;
68365;SDS011;55283;51.466;5.478;2023-02-11T08:13:17;20.13;;;12.83;;
68365;SDS011;55283;51.466;5.478;2023-02-11T08:15:42;22.67;;;13.07;;
68365;SDS011;55283;51.466;5.478;2023-02-11T08:18:08;24.00;;;13.43;;
68365;SDS011;55283;51.466;5.478;2023-02-11T08:20:33;25.67;;;13.63;;
68365;SDS011;55283;51.466;5.478;2023-02-11T08:22:59;23.83;;;13.07;;
68365;SDS011;55283;51.466;5.478;2023-02-11T08:25:25;23.10;;;13.43;;
68365;SDS011;55283;51.466;5.478;2023-02-11T08:27:50;25.00;;;13.87;;
68365;SDS011;55283;51.466;5.478;2023-02-11T08:30:16;28.43;;;13.67;;
68365;SDS011;55283;51.466;5.478;2023-02-11T08:32:41;25.00;;;14.60;;
68365;SDS011;55283;51.466;5.478;2023-02-11T08:35:07;28.70;;;13.87;;
68365;SDS011;55283;51.466;5.478;2023-02-11T08:37:32;27.83;;;14.93;;
68365;SDS011;55283;51.466;5.478;2023-02-11T08:39:58;27.50;;;14.85;;
68365;SDS011;55283;51.466;5.478;2023-02-11T08:42:24;27.60;;;14.97;;
68365;SDS011;55283;51.466;5.478;2023-02-11T08:44:49;27.70;;;14.97;;
68365;SDS011;55283;51.466;5.478;2023-02-11T08:47:14;29.23;;;15.30;;
68365;SDS011;55283;51.466;5.478;2023-02-11T08:49:40;28.48;;;15.50;;
68365;SDS011;55283;51.466;5.478;2023-02-11T08:52:06;27.13;;;15.60;;
68365;SDS011;55283;51.466;5.478;2023-02-11T08:54:32;27.13;;;15.95;;
68365;SDS011;55283;51.466;5.478;2023-02-11T08:56:57;30.97;;;15.77;;
68365;SDS011;55283;51.466;5.478;2023-02-11T08:59:23;26.92;;;15.48;;
68365;SDS011;55283;51.466;5.478;2023-02-11T09:01:48;27.17;;;15.90;;
68365;SDS011;55283;51.466;5.478;2023-02-11T09:04:14;27.63;;;15.80;;
68365;SDS011;55283;51.466;5.478;2023-02-11T09:06:39;27.23;;;16.05;;
68365;SDS011;55283;51.466;5.478;2023-02-11T09:09:05;25.97;;;14.47;;
68365;SDS011;55283;51.466;5.478;2023-02-11T09:11:34;25.05;;;14.77;;
68365;SDS011;55283;51.466;5.478;2023-02-11T09:14:00;26.90;;;14.07;;
68365;SDS011;55283;51.466;5.478;2023-02-11T09:16:27;23.65;;;13.13;;
68365;SDS011;55283;51.466;5.478;2023-02-11T09:18:57;23.63;;;12.85;;
68365;SDS011;55283;51.466;5.478;2023-02-11T09:21:24;20.87;;;12.03;;
68365;SDS011;55283;51.466;5.478;2023-02-11T09:23:50;26.70;;;11.55;;
68365;SDS011;55283;51.466;5.478;2023-02-11T09:26:20;19.23;;;11.47;;
68365;SDS011;55283;51.466;5.478;2023-02-11T09:28:48;19.60;;;10.82;;
68365;SDS011;55283;51.466;5.478;2023-02-11T09:31:15;22.08;;;10.63;;
68365;SDS011;55283;51.466;5.478;2023-02-11T09:33:44;17.10;;;10.10;;
68365;SDS011;55283;51.466;5.478;2023-02-11T09:36:15;18.08;;;10.32;;
68365;SDS011;55283;51.466;5.478;2023-02-11T09:38:43;17.45;;;10.02;;
68365;SDS011;55283;51.466;5.478;2023-02-11T09:41:32;20.90;;;10.65;;
68365;SDS011;55283;51.466;5.478;2023-02-11T09:44:07;16.50;;;9.10;;
68365;SDS011;55283;51.466;5.478;2023-02-11T09:46:41;17.33;;;9.85;;
68365;SDS011;55283;51.466;5.478;2023-02-11T09:49:15;14.80;;;8.68;;
68365;SDS011;55283;51.466;5.478;2023-02-11T09:51:51;17.63;;;9.33;;
68365;SDS011;55283;51.466;5.478;2023-02-11T09:54:30;16.10;;;9.02;;
68365;SDS011;55283;51.466;5.478;2023-02-11T09:57:04;15.15;;;8.98;;
68365;SDS011;55283;51.466;5.478;2023-02-11T09:59:33;15.37;;;8.83;;
68365;SDS011;55283;51.466;5.478;2023-02-11T10:10:42;16.10;;;8.13;;
68365;SDS011;55283;51.466;5.478;2023-02-11T10:23:47;13.75;;;7.30;;
68365;SDS011;55283;51.466;5.478;2023-02-11T10:26:16;12.15;;;7.55;;
68365;SDS011;55283;51.466;5.478;2023-02-11T10:28:47;14.23;;;7.35;;
68365;SDS011;55283;51.466;5.478;2023-02-11T10:31:20;16.97;;;7.33;;
68365;SDS011;55283;51.466;5.478;2023-02-11T10:36:28;15.50;;;7.43;;
68365;SDS011;55283;51.466;5.478;2023-02-11T10:38:57;14.20;;;7.40;;
68365;SDS011;55283;51.466;5.478;2023-02-11T10:41:29;10.48;;;6.53;;
68365;SDS011;55283;51.466;5.478;2023-02-11T10:44:00;13.15;;;7.00;;
68365;SDS011;55283;51.466;5.478;2023-02-11T10:46:28;11.17;;;6.83;;
68365;SDS011;55283;51.466;5.478;2023-02-11T10:48:57;11.65;;;6.72;;
68365;SDS011;55283;51.466;5.478;2023-02-11T10:51:27;10.73;;;6.93;;
68365;SDS011;55283;51.466;5.478;2023-02-11T10:56:33;10.38;;;6.65;;
68365;SDS011;55283;51.466;5.478;2023-02-11T11:01:38;16.60;;;9.82;;
68365;SDS011;55283;51.466;5.478;2023-02-11T11:04:26;20.90;;;10.50;;
68365;SDS011;55283;51.466;5.478;2023-02-11T11:07:07;16.23;;;9.23;;
68365;SDS011;55283;51.466;5.478;2023-02-11T11:12:46;17.55;;;8.38;;
68365;SDS011;55283;51.466;5.478;2023-02-11T11:15:14;12.57;;;7.57;;
68365;SDS011;55283;51.466;5.478;2023-02-11T11:17:42;13.60;;;7.57;;
68365;SDS011;55283;51.466;5.478;2023-02-11T11:20:26;12.90;;;7.60;;
68365;SDS011;55283;51.466;5.478;2023-02-11T11:23:08;13.70;;;7.10;;
68365;SDS011;55283;51.466;5.478;2023-02-11T11:25:40;13.18;;;7.60;;
68365;SDS011;55283;51.466;5.478;2023-02-11T11:28:17;15.48;;;7.53;;
68365;SDS011;55283;51.466;5.478;2023-02-11T11:30:46;11.20;;;6.90;;
68365;SDS011;55283;51.466;5.478;2023-02-11T11:33:18;14.55;;;7.78;;
68365;SDS011;55283;51.466;5.478;2023-02-11T11:38:55;9.88;;;6.55;;
68365;SDS011;55283;51.466;5.478;2023-02-11T11:41:28;9.93;;;6.60;;
68365;SDS011;55283;51.466;5.478;2023-02-11T11:44:03;10.70;;;6.50;;
68365;SDS011;55283;51.466;5.478;2023-02-11T11:47:38;10.93;;;6.90;;
68365;SDS011;55283;51.466;5.478;2023-02-11T11:57:53;11.10;;;7.43;;
68365;SDS011;55283;51.466;5.478;2023-02-11T12:00:43;13.00;;;6.97;;
68365;SDS011;55283;51.466;5.478;2023-02-11T12:03:12;11.67;;;7.03;;
68365;SDS011;55283;51.466;5.478;2023-02-11T12:05:46;11.25;;;6.85;;
68365;SDS011;55283;51.466;5.478;2023-02-11T12:22:11;13.95;;;6.80;;
68365;SDS011;55283;51.466;5.478;2023-02-11T12:25:24;12.45;;;7.07;;
68365;SDS011;55283;51.466;5.478;2023-02-11T12:27:55;11.40;;;6.90;;
68365;SDS011;55283;51.466;5.478;2023-02-11T12:30:34;10.73;;;6.80;;
68365;SDS011;55283;51.466;5.478;2023-02-11T12:35:54;10.75;;;6.43;;
68365;SDS011;55283;51.466;5.478;2023-02-11T12:43:35;9.50;;;6.03;;
68365;SDS011;55283;51.466;5.478;2023-02-11T12:49:03;9.18;;;6.03;;
68365;SDS011;55283;51.466;5.478;2023-02-11T12:54:29;10.63;;;6.22;;
68365;SDS011;55283;51.466;5.478;2023-02-11T13:00:06;8.82;;;6.13;;
68365;SDS011;55283;51.466;5.478;2023-02-11T13:05:28;10.03;;;5.77;;
68365;SDS011;55283;51.466;5.478;2023-02-11T13:08:10;10.20;;;6.53;;
68365;SDS011;55283;51.466;5.478;2023-02-11T13:10:58;10.60;;;6.60;;
68365;SDS011;55283;51.466;5.478;2023-02-11T13:13:28;8.63;;;6.30;;
68365;SDS011;55283;51.466;5.478;2023-02-11T13:15:58;11.07;;;6.53;;
68365;SDS011;55283;51.466;5.478;2023-02-11T13:24:21;9.20;;;5.90;;
68365;SDS011;55283;51.466;5.478;2023-02-11T13:35:30;10.35;;;6.55;;
68365;SDS011;55283;51.466;5.478;2023-02-11T13:38:20;10.18;;;5.97;;
68365;SDS011;55283;51.466;5.478;2023-02-11T13:41:01;9.93;;;6.43;;
68365;SDS011;55283;51.466;5.478;2023-02-11T13:43:29;8.60;;;6.10;;
68365;SDS011;55283;51.466;5.478;2023-02-11T13:46:01;8.40;;;6.00;;
68365;SDS011;55283;51.466;5.478;2023-02-11T13:48:29;8.30;;;5.68;;
68365;SDS011;55283;51.466;5.478;2023-02-11T13:51:04;10.40;;;6.20;;
68365;SDS011;55283;51.466;5.478;2023-02-11T13:56:28;8.65;;;6.07;;
68365;SDS011;55283;51.466;5.478;2023-02-11T13:58:54;11.67;;;5.87;;
68365;SDS011;55283;51.466;5.478;2023-02-11T14:04:32;8.82;;;6.10;;
68365;SDS011;55283;51.466;5.478;2023-02-11T14:07:24;9.17;;;5.73;;
68365;SDS011;55283;51.466;5.478;2023-02-11T14:16:08;8.90;;;6.00;;
68365;SDS011;55283;51.466;5.478;2023-02-11T14:29:02;9.23;;;5.63;;
68365;SDS011;55283;51.466;5.478;2023-02-11T14:31:49;8.05;;;5.90;;
68365;SDS011;55283;51.466;5.478;2023-02-11T14:37:08;7.75;;;5.57;;
68365;SDS011;55283;51.466;5.478;2023-02-11T14:39:53;8.30;;;6.03;;
68365;SDS011;55283;51.466;5.478;2023-02-11T14:42:25;8.00;;;6.00;;
68365;SDS011;55283;51.466;5.478;2023-02-11T14:44:57;8.27;;;5.73;;
68365;SDS011;55283;51.466;5.478;2023-02-11T14:47:38;7.35;;;5.55;;
68365;SDS011;55283;51.466;5.478;2023-02-11T14:50:15;8.48;;;6.18;;
68365;SDS011;55283;51.466;5.478;2023-02-11T14:53:05;8.07;;;6.07;;
68365;SDS011;55283;51.466;5.478;2023-02-11T14:55:39;8.20;;;5.70;;
68365;SDS011;55283;51.466;5.478;2023-02-11T14:58:23;8.45;;;5.68;;
68365;SDS011;55283;51.466;5.478;2023-02-11T15:06:19;8.27;;;5.53;;
68365;SDS011;55283;51.466;5.478;2023-02-11T15:08:48;8.13;;;5.43;;
68365;SDS011;55283;51.466;5.478;2023-02-11T15:11:16;9.53;;;5.50;;
68365;SDS011;55283;51.466;5.478;2023-02-11T15:13:45;7.68;;;5.45;;
68365;SDS011;55283;51.466;5.478;2023-02-11T15:16:15;7.75;;;5.25;;
68365;SDS011;55283;51.466;5.478;2023-02-11T15:18:46;9.33;;;5.87;;
68365;SDS011;55283;51.466;5.478;2023-02-11T15:21:25;8.88;;;6.18;;
68365;SDS011;55283;51.466;5.478;2023-02-11T15:24:19;8.95;;;5.82;;
68365;SDS011;55283;51.466;5.478;2023-02-11T15:26:58;8.57;;;5.60;;
68365;SDS011;55283;51.466;5.478;2023-02-11T15:29:25;9.05;;;5.57;;
68365;SDS011;55283;51.466;5.478;2023-02-11T15:32:03;6.78;;;5.40;;
68365;SDS011;55283;51.466;5.478;2023-02-11T15:34:42;9.77;;;5.65;;
68365;SDS011;55283;51.466;5.478;2023-02-11T15:37:10;7.43;;;5.20;;
68365;SDS011;55283;51.466;5.478;2023-02-11T15:39:48;7.22;;;5.32;;
68365;SDS011;55283;51.466;5.478;2023-02-11T15:42:19;6.40;;;5.05;;
68365;SDS011;55283;51.466;5.478;2023-02-11T15:44:45;7.83;;;5.80;;
68365;SDS011;55283;51.466;5.478;2023-02-11T15:47:11;6.53;;;5.38;;
68365;SDS011;55283;51.466;5.478;2023-02-11T15:49:43;10.77;;;5.65;;
68365;SDS011;55283;51.466;5.478;2023-02-11T15:52:10;7.20;;;5.63;;
68365;SDS011;55283;51.466;5.478;2023-02-11T15:54:38;9.32;;;6.40;;
68365;SDS011;55283;51.466;5.478;2023-02-11T15:57:06;7.30;;;5.38;;
68365;SDS011;55283;51.466;5.478;2023-02-11T15:59:37;10.10;;;6.30;;
68365;SDS011;55283;51.466;5.478;2023-02-11T16:02:06;9.53;;;7.07;;
68365;SDS011;55283;51.466;5.478;2023-02-11T16:04:53;11.85;;;8.40;;
68365;SDS011;55283;51.466;5.478;2023-02-11T16:12:52;18.23;;;11.70;;
68365;SDS011;55283;51.466;5.478;2023-02-11T16:17:58;16.43;;;10.07;;
68365;SDS011;55283;51.466;5.478;2023-02-11T16:20:24;15.52;;;10.38;;
68365;SDS011;55283;51.466;5.478;2023-02-11T16:22:50;15.02;;;10.40;;
68365;SDS011;55283;51.466;5.478;2023-02-11T16:25:16;14.90;;;10.10;;
68365;SDS011;55283;51.466;5.478;2023-02-11T16:27:46;16.92;;;10.70;;
68365;SDS011;55283;51.466;5.478;2023-02-11T16:30:32;15.80;;;9.70;;
68365;SDS011;55283;51.466;5.478;2023-02-11T16:32:59;15.03;;;9.57;;
68365;SDS011;55283;51.466;5.478;2023-02-11T16:35:24;16.33;;;10.52;;
68365;SDS011;55283;51.466;5.478;2023-02-11T16:37:50;18.50;;;9.93;;
68365;SDS011;55283;51.466;5.478;2023-02-11T16:40:15;13.23;;;9.23;;
68365;SDS011;55283;51.466;5.478;2023-02-11T16:42:41;14.48;;;9.18;;
68365;SDS011;55283;51.466;5.478;2023-02-11T16:45:06;13.97;;;9.17;;
68365;SDS011;55283;51.466;5.478;2023-02-11T16:47:32;13.15;;;9.25;;
68365;SDS011;55283;51.466;5.478;2023-02-11T16:49:59;13.73;;;8.70;;
68365;SDS011;55283;51.466;5.478;2023-02-11T16:52:26;14.60;;;9.23;;
68365;SDS011;55283;51.466;5.478;2023-02-11T16:54:52;11.48;;;8.35;;
68365;SDS011;55283;51.466;5.478;2023-02-11T16:57:21;14.27;;;8.70;;
68365;SDS011;55283;51.466;5.478;2023-02-11T16:59:48;13.45;;;8.00;;
68365;SDS011;55283;51.466;5.478;2023-02-11T17:02:15;14.00;;;8.20;;
68365;SDS011;55283;51.466;5.478;2023-02-11T17:04:44;13.25;;;7.82;;
68365;SDS011;55283;51.466;5.478;2023-02-11T17:07:09;10.10;;;8.00;;
68365;SDS011;55283;51.466;5.478;2023-02-11T17:09:35;11.00;;;7.43;;
68365;SDS011;55283;51.466;5.478;2023-02-11T17:12:00;10.20;;;7.73;;
68365;SDS011;55283;51.466;5.478;2023-02-11T17:14:26;11.73;;;8.27;;
68365;SDS011;55283;51.466;5.478;2023-02-11T17:16:51;10.83;;;8.07;;
68365;SDS011;55283;51.466;5.478;2023-02-11T17:19:18;11.20;;;7.87;;
68365;SDS011;55283;51.466;5.478;2023-02-11T17:21:48;11.05;;;7.82;;
68365;SDS011;55283;51.466;5.478;2023-02-11T17:24:15;10.40;;;7.37;;
68365;SDS011;55283;51.466;5.478;2023-02-11T17:26:42;12.43;;;7.88;;
68365;SDS011;55283;51.466;5.478;2023-02-11T17:29:12;10.63;;;7.15;;
68365;SDS011;55283;51.466;5.478;2023-02-11T17:31:40;10.90;;;6.90;;
68365;SDS011;55283;51.466;5.478;2023-02-11T17:34:06;9.93;;;7.40;;
68365;SDS011;55283;51.466;5.478;2023-02-11T17:36:31;10.63;;;7.18;;
68365;SDS011;55283;51.466;5.478;2023-02-11T17:38:58;11.90;;;7.20;;
68365;SDS011;55283;51.466;5.478;2023-02-11T17:41:24;9.88;;;7.07;;
68365;SDS011;55283;51.466;5.478;2023-02-11T17:43:49;9.30;;;6.73;;
68365;SDS011;55283;51.466;5.478;2023-02-11T17:46:15;10.70;;;6.70;;
68365;SDS011;55283;51.466;5.478;2023-02-11T17:48:41;11.23;;;7.55;;